Time;durP1;ratioP1;P1;durP2;ratioP2;P2;SDS_P1;SDS_P2;PMS_P1;PMS_P2;Temp;Humidity;BMP_temperature;BMP_pressure;BME280_temperature;BME280_humidity;BME280_pressure;Samples;Min_cycle;Max_cycle;Signal;HPM_P1;HPM_P2
2022/07/21 00:00:23;;;;;;;;;;;;;;;24.82;57.89;101422.03;1045128;28;1925;-67
2022/07/21 00:01:14;;;;;;;;;;;;;;;24.82;57.58;101422.88;1044701;28;1012;-67
2022/07/21 00:02:04;;;;;;;;;;;;;;;24.48;58.40;101420.50;1044723;28;658;-68
2022/07/21 00:02:55;;;;;;;;;;;;;;;24.29;59.55;101430.94;1044700;28;650;-67
2022/07/21 00:03:45;;;;;;;;;;;;;;;24.15;59.82;101427.88;1044513;28;658;-68
2022/07/21 00:04:36;;;;;;;;;;;;;;;24.14;59.54;101420.75;1043055;28;733;-67
2022/07/21 00:05:26;;;;;;;;;;;;;;;24.35;59.24;101428.38;1044529;28;650;-68
2022/07/21 00:06:16;;;;;;;;;;;;;;;24.40;59.11;101419.66;1044654;28;693;-68
2022/07/21 00:07:07;;;;;;;;;;;;;;;24.29;59.24;101423.63;1044783;28;645;-67
2022/07/21 00:07:57;;;;;;;;;;;;;;;23.64;61.23;101415.53;1044496;28;705;-67
2022/07/21 00:08:48;;;;;;;;;;;;;;;23.99;59.88;101421.63;1044673;28;701;-66
2022/07/21 00:09:38;;;;;;;;;;;;;;;24.21;59.61;101420.88;1044542;28;654;-66
2022/07/21 00:10:29;;;;;;;;;;;;;;;23.67;60.47;101417.91;1044036;28;663;-65
2022/07/21 00:11:19;;;;;;;;;;;;;;;23.85;60.26;101415.84;1044549;28;702;-65
2022/07/21 00:12:09;;;;;;;;;;;;;;;23.88;60.17;101412.78;1043678;28;599;-65
2022/07/21 00:13:00;;;;;;;;;;;;;;;24.14;59.58;101417.16;1044663;28;670;-66
2022/07/21 00:13:51;;;;;;;;;;;;;;;24.37;58.93;101412.69;1044001;28;663;-66
2022/07/21 00:14:41;;;;;;;;;;;;;;;24.52;58.52;101416.41;1044537;28;626;-67
2022/07/21 00:15:31;;;;;;;;;;;;;;;24.62;58.20;101420.78;1044173;28;619;-66
2022/07/21 00:16:22;;;;;;;;;;;;;;;23.88;59.41;101417.38;1044638;28;690;-66
2022/07/21 00:17:12;;;;;;;;;;;;;;;23.51;60.63;101409.72;1043974;28;634;-66
2022/07/21 00:18:03;;;;;;;;;;;;;;;23.71;60.95;101419.25;1044605;28;669;-66
2022/07/21 00:18:53;;;;;;;;;;;;;;;23.97;60.19;101420.94;1044538;28;615;-66
2022/07/21 00:19:43;;;;;;;;;;;;;;;24.07;60.14;101413.44;1044670;28;756;-66
2022/07/21 00:20:34;;;;;;;;;;;;;;;24.19;59.50;101420.19;1043978;28;1921;-65
2022/07/21 00:21:24;;;;;;;;;;;;;;;23.83;59.77;101411.59;1045199;28;719;-66
2022/07/21 00:22:15;;;;;;;;;;;;;;;23.59;61.18;101412.47;1045291;28;674;-65
2022/07/21 00:23:05;;;;;;;;;;;;;;;23.82;60.39;101412.63;1044809;28;646;-65
2022/07/21 00:23:56;;;;;;;;;;;;;;;24.10;59.67;101416.66;1043904;28;654;-67
2022/07/21 00:24:46;;;;;;;;;;;;;;;24.12;59.77;101413.75;1039412;28;690;-66
2022/07/21 00:25:37;;;;;;;;;;;;;;;24.32;59.16;101416.97;1040255;28;683;-66
2022/07/21 00:26:27;;;;;;;;;;;;;;;24.29;59.31;101415.44;1040799;28;661;-66
2022/07/21 00:27:17;;;;;;;;;;;;;;;24.27;58.81;101406.59;1044447;28;616;-66
2022/07/21 00:28:08;;;;;;;;;;;;;;;24.24;59.21;101412.38;1045133;28;642;-67
2022/07/21 00:28:58;;;;;;;;;;;;;;;24.21;59.57;101412.69;1045002;28;705;-67
2022/07/21 00:29:49;;;;;;;;;;;;;;;24.06;59.96;101414.44;1044904;28;602;-66
2022/07/21 00:30:39;;;;;;;;;;;;;;;23.57;60.70;101406.34;1044790;28;783;-66
2022/07/21 00:31:30;;;;;;;;;;;;;;;23.44;61.20;101408.69;1039537;28;674;-66
2022/07/21 00:32:20;;;;;;;;;;;;;;;23.52;61.47;101404.13;1039505;28;1375;-66
2022/07/21 00:33:10;;;;;;;;;;;;;;;23.85;60.64;101401.38;1041858;28;614;-66
2022/07/21 00:34:01;;;;;;;;;;;;;;;24.12;59.68;101408.31;1036522;28;713;-66
2022/07/21 00:34:51;;;;;;;;;;;;;;;24.27;59.17;101403.88;1041307;28;606;-67
2022/07/21 00:35:42;;;;;;;;;;;;;;;23.95;60.23;101406.66;1041089;28;662;-67
2022/07/21 00:36:32;;;;;;;;;;;;;;;23.78;60.20;101412.13;1041370;28;662;-67
2022/07/21 00:37:23;;;;;;;;;;;;;;;23.84;60.35;101400.53;1044585;28;737;-66
2022/07/21 00:38:14;;;;;;;;;;;;;;;24.08;59.63;101406.97;1042853;28;638;-67
2022/07/21 00:39:04;;;;;;;;;;;;;;;23.68;60.07;101411.44;1043586;28;843;-67
2022/07/21 00:39:55;;;;;;;;;;;;;;;23.65;60.75;101413.63;1042732;28;672;-66
2022/07/21 00:40:45;;;;;;;;;;;;;;;23.92;60.06;101417.88;1045013;28;634;-66
2022/07/21 00:41:36;;;;;;;;;;;;;;;23.66;60.98;101410.75;1045139;28;969;-66
2022/07/21 00:42:26;;;;;;;;;;;;;;;23.65;60.69;101421.81;1045171;28;638;-66
2022/07/21 00:43:16;;;;;;;;;;;;;;;23.57;61.12;101419.09;1045125;28;705;-66
2022/07/21 00:44:07;;;;;;;;;;;;;;;23.50;61.11;101417.03;1045036;28;669;-66
2022/07/21 00:44:57;;;;;;;;;;;;;;;23.67;61.13;101422.50;1045104;28;642;-66
2022/07/21 00:45:48;;;;;;;;;;;;;;;23.54;60.98;101425.72;1045145;28;752;-65
2022/07/21 00:46:38;;;;;;;;;;;;;;;23.38;61.20;101420.25;1045119;28;864;-65
2022/07/21 00:47:29;;;;;;;;;;;;;;;23.55;61.29;101422.00;1045248;28;669;-66
2022/07/21 00:48:19;;;;;;;;;;;;;;;23.29;61.25;101421.28;1044627;28;701;-64
2022/07/21 00:49:09;;;;;;;;;;;;;;;22.52;63.36;101420.50;1042596;28;718;-65
2022/07/21 00:50:00;;;;;;;;;;;;;;;22.74;62.98;101419.09;1043070;28;662;-64
2022/07/21 00:50:50;;;;;;;;;;;;;;;23.01;62.62;101418.84;1044684;28;1481;-63
2022/07/21 00:51:41;;;;;;;;;;;;;;;22.99;62.76;101420.00;1045716;28;633;-65
2022/07/21 00:52:31;;;;;;;;;;;;;;;23.09;62.24;101415.28;1044936;28;646;-66
2022/07/21 00:53:22;;;;;;;;;;;;;;;23.31;61.61;101419.22;1045606;28;668;-66
2022/07/21 00:54:12;;;;;;;;;;;;;;;22.26;63.82;101417.84;1043712;28;678;-66
2022/07/21 00:55:02;;;;;;;;;;;;;;;22.77;62.73;101411.44;1045619;28;688;-66
2022/07/21 00:55:53;;;;;;;;;;;;;;;23.14;61.82;101411.03;1045104;28;676;-68
2022/07/21 00:56:43;;;;;;;;;;;;;;;23.41;61.71;101411.75;1045522;28;622;-67
2022/07/21 00:57:34;;;;;;;;;;;;;;;23.49;61.11;101414.47;1045604;28;732;-69
2022/07/21 00:58:24;;;;;;;;;;;;;;;23.38;60.92;101412.09;1045649;28;648;-68
2022/07/21 00:59:15;;;;;;;;;;;;;;;23.16;62.26;101414.44;1044070;28;1448;-67
2022/07/21 01:00:05;;;;;;;;;;;;;;;23.10;61.72;101406.97;1043891;28;690;-67
2022/07/21 01:00:56;;;;;;;;;;;;;;;23.53;60.97;101404.97;1043800;28;713;-67
2022/07/21 01:01:46;;;;;;;;;;;;;;;23.72;60.00;101404.63;1043777;28;698;-68
2022/07/21 01:02:37;;;;;;;;;;;;;;;23.38;61.24;101403.94;1044066;28;702;-68
2022/07/21 01:03:27;;;;;;;;;;;;;;;23.68;60.50;101410.59;1043710;28;678;-67
2022/07/21 01:04:17;;;;;;;;;;;;;;;23.65;60.33;101406.34;1043964;28;631;-66
2022/07/21 01:05:14;;;;;;;;;;;;;;;23.62;60.34;101401.25;1043867;28;711;-67
2022/07/21 01:06:04;;;;;;;;;;;;;;;23.87;59.61;101397.47;1045070;28;705;-68
2022/07/21 01:06:55;;;;;;;;;;;;;;;22.88;61.68;101396.72;1043882;28;674;-68
2022/07/21 01:07:45;;;;;;;;;;;;;;;23.29;61.53;101402.25;1043932;28;690;-68
2022/07/21 01:08:36;;;;;;;;;;;;;;;23.36;61.47;101403.25;1043832;28;666;-68
2022/07/21 01:09:26;;;;;;;;;;;;;;;23.67;60.67;101401.56;1039996;28;678;-69
2022/07/21 01:10:17;;;;;;;;;;;;;;;23.64;59.88;101401.94;1035623;28;856;-67
2022/07/21 01:11:07;;;;;;;;;;;;;;;23.11;61.59;101395.06;1039855;28;681;-68
2022/07/21 01:11:57;;;;;;;;;;;;;;;23.34;60.81;101402.56;1044575;28;650;-68
2022/07/21 01:12:48;;;;;;;;;;;;;;;23.58;60.37;101399.03;1039860;28;676;-67
2022/07/21 01:13:41;;;;;;;;;;;;;;;23.23;61.03;101400.19;1042644;28;702;-67
2022/07/21 01:14:31;;;;;;;;;;;;;;;23.34;61.41;101402.56;1040148;28;682;-67
2022/07/21 01:15:22;;;;;;;;;;;;;;;23.26;61.22;101400.72;1040045;28;720;-67
2022/07/21 01:16:12;;;;;;;;;;;;;;;23.41;61.05;101399.00;1045030;28;689;-67
2022/07/21 01:17:03;;;;;;;;;;;;;;;23.70;60.21;101398.50;1043867;28;635;-67
2022/07/21 01:17:53;;;;;;;;;;;;;;;23.75;59.64;101400.72;1044584;28;658;-67
2022/07/21 01:18:43;;;;;;;;;;;;;;;22.83;61.73;101391.78;1043913;28;666;-67
2022/07/21 01:19:34;;;;;;;;;;;;;;;23.13;61.57;101398.47;1044416;28;673;-67
2022/07/21 01:20:24;;;;;;;;;;;;;;;23.14;61.24;101393.88;1043769;28;1906;-67
2022/07/21 01:21:15;;;;;;;;;;;;;;;23.04;61.06;101388.59;1039613;28;663;-67
2022/07/21 01:22:06;;;;;;;;;;;;;;;23.06;61.95;101377.56;1040955;28;630;-68
2022/07/21 01:22:56;;;;;;;;;;;;;;;23.02;61.21;101387.06;1037466;28;669;-67
2022/07/21 01:23:47;;;;;;;;;;;;;;;22.19;63.60;101383.34;1036433;28;674;-67
2022/07/21 01:24:37;;;;;;;;;;;;;;;21.62;65.09;101388.38;1036032;28;638;-68
2022/07/21 01:25:28;;;;;;;;;;;;;;;22.20;63.86;101382.34;1038113;28;729;-67
2022/07/21 01:26:18;;;;;;;;;;;;;;;22.29;63.87;101384.06;1041612;28;716;-68
2022/07/21 01:27:09;;;;;;;;;;;;;;;21.96;64.71;101392.00;1040811;28;630;-67
2022/07/21 01:27:59;;;;;;;;;;;;;;;22.10;64.53;101385.16;1040576;28;692;-67
2022/07/21 01:28:49;;;;;;;;;;;;;;;22.55;62.95;101378.59;1036166;28;639;-67
2022/07/21 01:29:40;;;;;;;;;;;;;;;22.76;62.64;101387.97;1036836;28;1134;-68
2022/07/21 01:30:30;;;;;;;;;;;;;;;22.58;62.52;101379.09;1040949;28;679;-68
2022/07/21 01:31:21;;;;;;;;;;;;;;;22.90;62.19;101381.09;1040898;28;658;-68
2022/07/21 01:32:11;;;;;;;;;;;;;;;23.28;60.87;101390.50;1040027;28;635;-68
2022/07/21 01:33:01;;;;;;;;;;;;;;;23.29;60.49;101383.19;1040564;28;671;-67
2022/07/21 01:33:52;;;;;;;;;;;;;;;23.25;60.91;101379.97;1040733;28;714;-68
2022/07/21 01:34:42;;;;;;;;;;;;;;;23.56;60.15;101376.59;1036956;28;639;-68
2022/07/21 01:35:33;;;;;;;;;;;;;;;23.80;59.84;101379.28;1038765;28;674;-67
2022/07/21 01:36:23;;;;;;;;;;;;;;;23.97;58.94;101380.09;1041483;28;670;-67
2022/07/21 01:37:13;;;;;;;;;;;;;;;24.10;58.87;101383.97;1041670;28;644;-67
2022/07/21 01:38:04;;;;;;;;;;;;;;;24.18;58.60;101370.31;1041545;28;684;-67
2022/07/21 01:42:22;;;;;;;;;;;;;;;22.28;63.09;101372.34;1040521;28;661;-67
2022/07/21 01:43:12;;;;;;;;;;;;;;;22.67;62.79;101360.97;1041653;28;682;-67
2022/07/21 01:44:03;;;;;;;;;;;;;;;22.59;62.68;101359.06;1041513;28;663;-66
2022/07/21 01:44:53;;;;;;;;;;;;;;;22.62;62.68;101352.44;1041452;28;615;-67
2022/07/21 01:45:44;;;;;;;;;;;;;;;23.07;61.31;101360.22;1041719;28;744;-66
2022/07/21 01:46:34;;;;;;;;;;;;;;;22.83;62.00;101355.59;1041202;28;684;-67
2022/07/21 01:47:24;;;;;;;;;;;;;;;22.30;62.66;101353.19;1040181;28;697;-66
2022/07/21 01:48:15;;;;;;;;;;;;;;;22.41;63.39;101353.75;1040568;28;961;-65
2022/07/21 01:49:06;;;;;;;;;;;;;;;22.97;61.95;101354.09;1041041;28;701;-66
2022/07/21 01:49:56;;;;;;;;;;;;;;;23.37;60.85;101359.56;1043638;28;1500;-65
2022/07/21 01:50:47;;;;;;;;;;;;;;;23.69;59.68;101358.72;1044355;28;1096;-66
2022/07/21 01:51:37;;;;;;;;;;;;;;;23.25;60.30;101355.50;1046395;28;655;-67
2022/07/21 01:52:28;;;;;;;;;;;;;;;23.37;60.35;101354.13;1044104;28;682;-67
2022/07/21 01:53:18;;;;;;;;;;;;;;;22.80;61.69;101362.22;1043822;28;713;-66
2022/07/21 01:54:09;;;;;;;;;;;;;;;22.23;63.56;101357.56;1044044;28;659;-67
2022/07/21 01:54:59;;;;;;;;;;;;;;;22.30;63.07;101353.19;1044136;28;583;-67
2022/07/21 01:55:49;;;;;;;;;;;;;;;22.35;63.54;101361.72;1043918;28;667;-67
2022/07/21 01:56:40;;;;;;;;;;;;;;;22.90;62.17;101364.78;1044110;28;697;-67
2022/07/21 01:57:30;;;;;;;;;;;;;;;23.00;61.41;101373.63;1043835;28;646;-67
2022/07/21 01:58:21;;;;;;;;;;;;;;;23.07;61.11;101369.25;1044030;28;638;-67
2022/07/21 01:59:11;;;;;;;;;;;;;;;23.18;61.13;101376.22;1046182;28;650;-67
2022/07/21 02:00:01;;;;;;;;;;;;;;;23.49;59.93;101371.78;1046282;28;638;-67
2022/07/21 02:00:52;;;;;;;;;;;;;;;23.38;60.63;101376.72;1045947;28;1385;-65
2022/07/21 02:01:42;;;;;;;;;;;;;;;23.61;59.92;101377.78;1041439;28;664;-65
2022/07/21 02:02:33;;;;;;;;;;;;;;;23.64;59.45;101373.88;1041121;28;666;-65
2022/07/21 02:03:23;;;;;;;;;;;;;;;23.63;59.47;101381.19;1040955;28;689;-66
2022/07/21 02:04:14;;;;;;;;;;;;;;;23.53;59.82;101378.63;1041187;28;619;-65
2022/07/21 02:05:04;;;;;;;;;;;;;;;23.61;59.64;101376.94;1041159;28;643;-65
2022/07/21 02:05:54;;;;;;;;;;;;;;;22.87;61.84;101377.88;1040935;28;594;-66
2022/07/21 02:06:45;;;;;;;;;;;;;;;22.93;60.83;101371.78;1040724;28;669;-66
2022/07/21 02:07:35;;;;;;;;;;;;;;;22.79;61.74;101371.38;1040559;28;682;-67
2022/07/21 02:08:26;;;;;;;;;;;;;;;22.38;62.87;101367.66;1039637;28;776;-67
2022/07/21 02:09:16;;;;;;;;;;;;;;;22.90;61.67;101372.09;1041459;28;681;-65
2022/07/21 02:10:07;;;;;;;;;;;;;;;23.16;61.20;101365.50;1040922;28;721;-65
2022/07/21 02:10:57;;;;;;;;;;;;;;;23.17;60.60;101369.91;1041136;28;725;-65
2022/07/21 02:11:47;;;;;;;;;;;;;;;23.05;61.03;101370.44;1040917;28;639;-66
2022/07/21 02:12:38;;;;;;;;;;;;;;;23.33;60.37;101370.94;1041044;28;658;-67
2022/07/21 02:13:28;;;;;;;;;;;;;;;23.21;60.80;101373.16;1040975;28;646;-67
2022/07/21 02:14:19;;;;;;;;;;;;;;;23.46;59.91;101374.88;1041063;28;674;-66
2022/07/21 02:15:09;;;;;;;;;;;;;;;23.68;59.23;101372.47;1040845;28;728;-67
2022/07/21 02:16:00;;;;;;;;;;;;;;;23.72;59.37;101371.97;1041028;28;654;-67
2022/07/21 02:16:50;;;;;;;;;;;;;;;23.52;59.71;101367.91;1041551;28;695;-65
2022/07/21 02:17:40;;;;;;;;;;;;;;;23.35;59.78;101368.91;1040906;28;623;-67
2022/07/21 02:18:31;;;;;;;;;;;;;;;23.50;59.46;101365.31;1040972;28;686;-65
2022/07/21 02:19:21;;;;;;;;;;;;;;;23.71;59.46;101372.16;1040952;28;619;-65
2022/07/21 02:20:12;;;;;;;;;;;;;;;23.69;59.55;101369.59;1044977;28;1260;-65
2022/07/21 02:21:02;;;;;;;;;;;;;;;23.38;59.90;101371.28;1044312;28;627;-66
2022/07/21 02:21:53;;;;;;;;;;;;;;;23.69;59.15;101366.03;1040684;28;631;-66
2022/07/21 02:22:45;;;;;;;;;;;;;;;23.86;58.83;101371.25;1040212;28;666;-66
2022/07/21 02:23:35;;;;;;;;;;;;;;;23.97;58.44;101367.34;1044618;28;666;-66
2022/07/21 02:24:26;;;;;;;;;;;;;;;24.04;58.00;101364.75;1045373;28;705;-66
2022/07/21 02:25:16;;;;;;;;;;;;;;;24.11;58.08;101363.91;1044224;28;627;-66
2022/07/21 02:26:07;;;;;;;;;;;;;;;24.14;57.92;101362.69;1045025;28;642;-66
2022/07/21 02:26:57;;;;;;;;;;;;;;;24.16;58.15;101356.06;1044392;28;670;-67
2022/07/21 02:27:47;;;;;;;;;;;;;;;23.86;58.38;101360.38;1044977;28;646;-66
2022/07/21 02:28:38;;;;;;;;;;;;;;;22.99;61.13;101361.06;1044365;28;651;-66
2022/07/21 02:29:28;;;;;;;;;;;;;;;23.43;59.83;101347.16;1044316;28;568;-67
2022/07/21 02:30:19;;;;;;;;;;;;;;;23.35;60.12;101350.72;1040586;28;757;-67
2022/07/21 02:31:09;;;;;;;;;;;;;;;23.10;60.47;101349.88;1040455;28;596;-67
2022/07/21 02:32:00;;;;;;;;;;;;;;;23.04;61.16;101353.25;1044855;28;626;-66
2022/07/21 02:32:50;;;;;;;;;;;;;;;23.26;60.64;101350.91;1044391;28;782;-66
2022/07/21 02:33:40;;;;;;;;;;;;;;;23.47;60.06;101348.50;1044163;28;675;-66
2022/07/21 02:34:31;;;;;;;;;;;;;;;23.71;59.47;101350.38;1040564;28;736;-66
2022/07/21 02:35:21;;;;;;;;;;;;;;;23.46;60.16;101350.38;1039940;28;622;-66
2022/07/21 02:36:12;;;;;;;;;;;;;;;23.22;60.54;101347.66;1044893;28;623;-66
2022/07/21 02:37:02;;;;;;;;;;;;;;;23.29;60.50;101350.56;1045523;28;673;-66
2022/07/21 02:37:53;;;;;;;;;;;;;;;23.48;59.64;101352.91;1044346;28;658;-66
2022/07/21 02:38:43;;;;;;;;;;;;;;;23.58;59.54;101345.47;1044240;28;1094;-66
2022/07/21 02:39:33;;;;;;;;;;;;;;;23.68;59.42;101348.84;1044280;28;663;-66
2022/07/21 02:40:24;;;;;;;;;;;;;;;23.62;59.57;101355.00;1044371;28;1914;-66
2022/07/21 02:41:14;;;;;;;;;;;;;;;23.79;58.85;101358.53;1044329;28;654;-66
2022/07/21 02:42:05;;;;;;;;;;;;;;;23.53;59.92;101350.56;1044858;28;638;-66
2022/07/21 02:42:55;;;;;;;;;;;;;;;23.70;58.94;101349.53;1044504;28;650;-66
2022/07/21 02:43:46;;;;;;;;;;;;;;;23.73;58.92;101351.06;1044254;28;623;-66
2022/07/21 02:44:36;;;;;;;;;;;;;;;23.77;59.07;101353.25;1040611;28;721;-67
2022/07/21 02:45:26;;;;;;;;;;;;;;;23.40;59.82;101347.50;1040516;28;769;-68
2022/07/21 02:46:17;;;;;;;;;;;;;;;23.13;60.25;101349.50;1044793;28;690;-67
2022/07/21 02:47:07;;;;;;;;;;;;;;;23.15;60.64;101342.03;1044220;28;679;-66
2022/07/21 02:47:58;;;;;;;;;;;;;;;23.44;59.63;101340.69;1044837;28;642;-66
2022/07/21 02:48:48;;;;;;;;;;;;;;;23.66;59.17;101342.72;1044509;28;706;-67
2022/07/21 02:49:39;;;;;;;;;;;;;;;23.45;60.15;101345.13;1043590;28;1291;-67
2022/07/21 02:50:29;;;;;;;;;;;;;;;23.66;59.40;101342.72;1044885;28;631;-67
2022/07/21 02:51:20;;;;;;;;;;;;;;;23.74;58.85;101347.31;1041946;28;1264;-69
2022/07/21 02:52:10;;;;;;;;;;;;;;;23.84;59.08;101347.97;1041474;28;690;-67
2022/07/21 02:53:00;;;;;;;;;;;;;;;23.36;60.19;101343.41;1041259;28;595;-67
2022/07/21 02:53:51;;;;;;;;;;;;;;;23.39;60.02;101341.19;1040991;28;678;-68
2022/07/21 02:54:41;;;;;;;;;;;;;;;23.12;60.48;101342.38;1040624;28;737;-67
2022/07/21 02:55:32;;;;;;;;;;;;;;;23.40;59.85;101358.38;1040805;28;615;-67
2022/07/21 02:56:22;;;;;;;;;;;;;;;23.42;59.89;101342.72;1041450;28;701;-67
2022/07/21 02:57:12;;;;;;;;;;;;;;;23.20;60.45;101342.38;1040743;28;697;-67
2022/07/21 02:58:03;;;;;;;;;;;;;;;22.13;63.46;101350.41;1041023;28;765;-66
2022/07/21 02:58:53;;;;;;;;;;;;;;;22.39;63.13;101347.63;1041262;28;649;-66
2022/07/21 02:59:44;;;;;;;;;;;;;;;22.45;62.79;101341.53;1040933;28;690;-66
2022/07/21 03:00:34;;;;;;;;;;;;;;;22.78;61.91;101349.81;1040717;28;1951;-67
2022/07/21 03:01:25;;;;;;;;;;;;;;;22.63;62.26;101337.84;1040677;28;882;-68
2022/07/21 03:02:15;;;;;;;;;;;;;;;22.90;61.28;101345.78;1040951;28;729;-67
2022/07/21 03:03:05;;;;;;;;;;;;;;;22.98;61.56;101345.75;1040660;28;619;-67
2022/07/21 03:03:56;;;;;;;;;;;;;;;23.22;60.63;101335.94;1040932;28;606;-67
2022/07/21 03:04:46;;;;;;;;;;;;;;;23.42;59.92;101350.91;1041363;28;634;-68
2022/07/21 03:05:37;;;;;;;;;;;;;;;23.64;59.23;101346.66;1041698;28;638;-68
2022/07/21 03:06:27;;;;;;;;;;;;;;;23.62;59.66;101346.84;1039342;28;724;-68
2022/07/21 03:07:18;;;;;;;;;;;;;;;23.07;60.65;101342.06;1040695;28;643;-68
2022/07/21 03:08:08;;;;;;;;;;;;;;;22.76;61.52;101355.38;1041745;28;729;-67
2022/07/21 03:08:58;;;;;;;;;;;;;;;22.54;62.54;101349.72;1040704;28;709;-68
2022/07/21 03:09:49;;;;;;;;;;;;;;;22.54;62.63;101349.72;1041404;28;704;-68
2022/07/21 03:10:39;;;;;;;;;;;;;;;22.29;63.40;101341.47;1040345;28;704;-68
2022/07/21 03:11:30;;;;;;;;;;;;;;;22.22;63.67;101339.56;1039679;28;638;-68
2022/07/21 03:12:20;;;;;;;;;;;;;;;22.11;63.81;101351.56;1041154;28;633;-68
2022/07/21 03:13:11;;;;;;;;;;;;;;;22.19;63.90;101353.50;1040805;28;700;-68
2022/07/21 03:14:01;;;;;;;;;;;;;;;21.94;64.34;101350.59;1040115;28;724;-68
2022/07/21 03:14:52;;;;;;;;;;;;;;;22.03;64.68;101348.84;1040854;28;720;-69
2022/07/21 03:15:43;;;;;;;;;;;;;;;22.10;64.05;101350.72;1041727;28;693;-67
2022/07/21 03:16:33;;;;;;;;;;;;;;;21.76;65.20;101352.53;1040647;28;732;-67
2022/07/21 03:17:24;;;;;;;;;;;;;;;22.31;63.62;101350.31;1040832;28;647;-67
2022/07/21 03:18:14;;;;;;;;;;;;;;;21.82;65.05;101347.34;1041749;28;701;-67
2022/07/21 03:19:05;;;;;;;;;;;;;;;22.10;64.25;101341.72;1040849;28;690;-67
2022/07/21 03:19:55;;;;;;;;;;;;;;;21.84;65.13;101347.16;1044794;28;1458;-67
2022/07/21 03:20:45;;;;;;;;;;;;;;;21.37;66.39;101350.22;1048235;28;1902;-67
2022/07/21 03:21:36;;;;;;;;;;;;;;;21.89;65.01;101343.94;1048958;28;661;-67
2022/07/21 03:22:26;;;;;;;;;;;;;;;21.42;66.24;101347.03;1049406;28;681;-67
2022/07/21 03:23:17;;;;;;;;;;;;;;;21.09;67.40;101338.59;1049569;28;700;-67
2022/07/21 03:24:07;;;;;;;;;;;;;;;21.67;65.70;101351.66;1048454;28;638;-67
2022/07/21 03:24:58;;;;;;;;;;;;;;;22.08;64.60;101338.31;1048314;28;643;-67
2022/07/21 03:25:48;;;;;;;;;;;;;;;22.54;62.94;101336.16;1048570;28;704;-67
2022/07/21 03:26:38;;;;;;;;;;;;;;;21.79;64.84;101347.66;1048067;28;713;-66
2022/07/21 03:27:29;;;;;;;;;;;;;;;21.71;65.55;101347.56;1048424;28;634;-67
2022/07/21 03:28:19;;;;;;;;;;;;;;;22.26;63.68;101335.53;1048439;28;642;-66
2022/07/21 03:29:10;;;;;;;;;;;;;;;22.75;62.34;101336.53;1043281;28;622;-66
2022/07/21 03:30:00;;;;;;;;;;;;;;;23.08;61.66;101337.47;1044148;28;732;-66
2022/07/21 03:30:50;;;;;;;;;;;;;;;23.18;61.36;101332.69;1043177;28;636;-67
2022/07/21 03:31:41;;;;;;;;;;;;;;;23.39;60.71;101334.91;1044506;28;736;-66
2022/07/21 03:32:31;;;;;;;;;;;;;;;23.42;60.27;101331.84;1048779;28;701;-66
2022/07/21 03:33:22;;;;;;;;;;;;;;;23.07;61.74;101333.91;1048375;28;662;-66
2022/07/21 03:34:12;;;;;;;;;;;;;;;23.29;60.83;101339.69;1048272;28;615;-67
2022/07/21 03:35:03;;;;;;;;;;;;;;;23.09;61.55;101329.16;1048234;28;642;-66
2022/07/21 03:35:53;;;;;;;;;;;;;;;23.25;60.92;101343.75;1048477;28;661;-66
2022/07/21 03:36:44;;;;;;;;;;;;;;;23.15;61.07;101344.75;1048298;28;638;-65
2022/07/21 03:37:34;;;;;;;;;;;;;;;22.46;62.99;101335.09;1048373;28;670;-64
2022/07/21 03:38:24;;;;;;;;;;;;;;;22.73;62.33;101338.56;1047012;28;658;-65
2022/07/21 03:39:15;;;;;;;;;;;;;;;22.62;62.70;101341.59;1043653;28;661;-65
2022/07/21 03:40:05;;;;;;;;;;;;;;;22.57;63.18;101341.25;1044078;28;717;-66
2022/07/21 03:40:56;;;;;;;;;;;;;;;22.82;62.34;101348.47;1044123;28;636;-65
2022/07/21 03:41:46;;;;;;;;;;;;;;;22.85;62.09;101339.97;1044288;28;717;-65
2022/07/21 03:42:37;;;;;;;;;;;;;;;22.88;61.88;101342.38;1044664;28;631;-65
2022/07/21 03:43:27;;;;;;;;;;;;;;;23.12;61.12;101338.81;1045196;28;681;-66
2022/07/21 03:44:17;;;;;;;;;;;;;;;23.02;61.33;101332.69;1044091;28;631;-64
2022/07/21 03:45:08;;;;;;;;;;;;;;;22.88;62.06;101336.09;1044335;28;634;-65
2022/07/21 03:45:58;;;;;;;;;;;;;;;22.97;62.04;101338.63;1044748;28;617;-65
2022/07/21 03:46:49;;;;;;;;;;;;;;;22.22;63.73;101340.41;1043727;28;635;-65
2022/07/21 03:47:39;;;;;;;;;;;;;;;22.66;63.03;101332.94;1044554;28;725;-64
2022/07/21 03:48:30;;;;;;;;;;;;;;;22.99;61.79;101336.59;1044200;28;618;-65
2022/07/21 03:49:20;;;;;;;;;;;;;;;23.24;61.42;101331.19;1041603;28;1446;-65
2022/07/21 03:50:11;;;;;;;;;;;;;;;23.43;60.29;101337.13;1039889;28;709;-65
2022/07/21 03:51:02;;;;;;;;;;;;;;;23.55;60.23;101340.38;1035792;28;1193;-65
2022/07/21 03:51:52;;;;;;;;;;;;;;;23.64;59.62;101336.63;1040211;28;780;-66
2022/07/21 03:52:43;;;;;;;;;;;;;;;23.70;59.88;101338.63;1038959;28;690;-65
2022/07/21 03:53:33;;;;;;;;;;;;;;;23.59;59.99;101336.28;1040723;28;1074;-65
2022/07/21 03:54:24;;;;;;;;;;;;;;;23.47;60.66;101337.59;1040494;28;654;-65
2022/07/21 03:55:18;;;;;;;;;;;;;;;22.12;64.39;101342.41;1040743;28;713;-65
2022/07/21 03:56:08;;;;;;;;;;;;;;;22.55;63.05;101332.41;1040587;28;728;-65
2022/07/21 03:56:59;;;;;;;;;;;;;;;22.87;61.97;101331.66;1040607;28;649;-66
2022/07/21 03:57:49;;;;;;;;;;;;;;;22.85;62.22;101337.25;1038062;28;1462;-66
2022/07/21 03:58:40;;;;;;;;;;;;;;;22.80;62.66;101332.31;1036084;28;628;-66
2022/07/21 03:59:30;;;;;;;;;;;;;;;;;;1037633;28;1380;-66
2022/07/21 04:00:20;;;;;;;;;;;;;;;22.85;62.09;101334.53;1039742;28;1894;-66
2022/07/21 04:01:11;;;;;;;;;;;;;;;22.27;64.27;101340.78;1039951;28;659;-66
2022/07/21 04:02:01;;;;;;;;;;;;;;;22.47;63.49;101328.66;1040873;28;701;-66
2022/07/21 04:02:52;;;;;;;;;;;;;;;22.84;62.24;101330.13;1040983;28;654;-66
2022/07/21 04:03:42;;;;;;;;;;;;;;;22.90;62.44;101337.63;1040170;28;706;-66
2022/07/21 04:04:32;;;;;;;;;;;;;;;22.99;62.25;101341.19;1039434;28;678;-66
2022/07/21 04:05:23;;;;;;;;;;;;;;;22.93;62.13;101339.16;1039974;28;624;-66
2022/07/21 04:06:13;;;;;;;;;;;;;;;23.08;61.49;101337.47;1041012;28;748;-65
2022/07/21 04:07:04;;;;;;;;;;;;;;;22.87;62.14;101339.81;1041046;28;623;-65
2022/07/21 04:07:54;;;;;;;;;;;;;;;23.10;61.38;101339.00;1041047;28;681;-65
2022/07/21 04:08:45;;;;;;;;;;;;;;;23.27;60.96;101331.69;1039769;28;702;-65
2022/07/21 04:09:35;;;;;;;;;;;;;;;23.41;60.41;101332.88;1040003;28;662;-65
2022/07/21 04:10:26;;;;;;;;;;;;;;;23.53;60.22;101331.53;1039756;28;653;-65
2022/07/21 04:11:16;;;;;;;;;;;;;;;23.29;60.65;101334.25;1039900;28;665;-66
2022/07/21 04:12:07;;;;;;;;;;;;;;;22.93;62.07;101339.16;1040797;28;662;-65
2022/07/21 04:12:57;;;;;;;;;;;;;;;22.24;64.13;101343.81;1039249;28;643;-66
2022/07/21 04:13:48;;;;;;;;;;;;;;;22.46;63.59;101335.09;1039730;28;659;-65
2022/07/21 04:14:38;;;;;;;;;;;;;;;22.82;62.70;101343.88;1039265;28;645;-65
2022/07/21 04:15:28;;;;;;;;;;;;;;;23.04;61.76;101345.09;1040759;28;681;-66
2022/07/21 04:16:19;;;;;;;;;;;;;;;23.29;61.36;101334.25;1041107;28;618;-66
2022/07/21 04:17:09;;;;;;;;;;;;;;;23.06;61.81;101334.91;1038754;28;710;-66
2022/07/21 04:18:00;;;;;;;;;;;;;;;23.00;62.06;101338.28;1040707;28;638;-68
2022/07/21 04:18:50;;;;;;;;;;;;;;;22.98;62.17;101345.75;1040423;28;726;-67
2022/07/21 04:19:40;;;;;;;;;;;;;;;23.02;61.83;101343.56;1037875;28;1383;-67
2022/07/21 04:20:31;;;;;;;;;;;;;;;22.91;62.63;101341.19;1040353;28;1977;-67
2022/07/21 04:21:21;;;;;;;;;;;;;;;23.14;61.48;101348.50;1040781;28;1559;-67
2022/07/21 04:22:12;;;;;;;;;;;;;;;23.31;61.33;101343.06;1040504;28;660;-66
2022/07/21 04:23:02;;;;;;;;;;;;;;;23.01;62.38;101336.44;1040485;28;680;-67
2022/07/21 04:23:53;;;;;;;;;;;;;;;23.25;61.46;101341.03;1040978;28;647;-68
2022/07/21 04:24:43;;;;;;;;;;;;;;;23.38;61.13;101342.22;1040534;28;658;-67
2022/07/21 04:25:35;;;;;;;;;;;;;;;23.49;60.39;101346.44;1040586;28;702;-66
2022/07/21 04:26:27;;;;;;;;;;;;;;;23.59;60.40;101351.75;1041098;28;670;-67
2022/07/21 04:27:17;;;;;;;;;;;;;;;23.65;60.34;101354.63;1040990;28;674;-68
2022/07/21 04:28:08;;;;;;;;;;;;;;;23.33;60.84;101355.47;1039558;28;1369;-65
2022/07/21 04:28:58;;;;;;;;;;;;;;;23.23;61.11;101351.22;1040705;28;1366;-67
2022/07/21 04:29:49;;;;;;;;;;;;;;;23.41;61.08;101355.47;1038839;28;1288;-67